createdAt,value
2018-10-11T17:44:25.825Z,14.60
2018-10-11T17:46:54.489Z,14.50
2018-10-11T17:49:23.035Z,14.50
2018-10-11T17:51:51.688Z,14.40
2018-10-11T17:54:20.240Z,14.50
2018-10-11T17:56:48.840Z,14.40
2018-10-11T17:59:17.436Z,14.40
2018-10-11T18:01:45.975Z,14.40
2018-10-11T18:04:14.533Z,14.40
2018-10-11T18:06:43.112Z,14.30
2018-10-11T18:09:12.382Z,14.30
2018-10-11T18:11:40.924Z,14.30
2018-10-11T18:14:10.172Z,14.30
2018-10-11T18:16:38.724Z,14.30
2018-10-11T18:19:07.309Z,14.20
2018-10-11T18:21:35.936Z,14.20
2018-10-11T18:24:04.469Z,14.20
2018-10-11T18:26:33.425Z,14.10
2018-10-11T18:29:02.062Z,14.10
2018-10-11T18:31:30.621Z,14.10
2018-10-11T18:33:59.179Z,14.10
2018-10-11T18:36:27.819Z,14.10
2018-10-11T18:38:56.600Z,14.10
2018-10-11T18:41:25.360Z,14.10
2018-10-11T18:43:53.893Z,14.10
2018-10-11T18:46:22.479Z,14.10
2018-10-11T18:48:51.147Z,14.00
2018-10-11T18:51:19.743Z,14.10
2018-10-11T18:53:48.296Z,14.10
2018-10-11T18:56:16.927Z,14.10
2018-10-11T18:58:45.463Z,14.10
2018-10-11T19:01:14.055Z,14.10
2018-10-11T19:03:42.609Z,14.10
2018-10-11T19:06:11.187Z,14.10
2018-10-11T19:08:39.813Z,14.20
2018-10-11T19:11:08.554Z,14.20
2018-10-11T19:13:37.133Z,14.20
2018-10-11T19:16:05.709Z,14.10
2018-10-11T19:18:34.490Z,14.20
2018-10-11T19:21:03.041Z,14.20
2018-10-11T19:23:31.648Z,14.20
2018-10-11T19:26:00.222Z,14.20
2018-10-11T19:28:28.787Z,14.20
2018-10-11T19:30:57.494Z,14.20
2018-10-11T19:33:26.044Z,14.20
2018-10-11T19:35:54.617Z,14.30
2018-10-11T19:38:23.180Z,14.30
2018-10-11T19:40:51.733Z,14.30
2018-10-11T19:43:20.287Z,14.30
2018-10-11T19:45:48.990Z,14.40
2018-10-11T19:48:17.646Z,14.40
2018-10-11T19:50:46.375Z,14.40
2018-10-11T19:53:15.067Z,14.50
2018-10-11T19:55:43.828Z,14.50
2018-10-11T19:58:12.407Z,14.50
2018-10-11T20:00:40.984Z,14.50
2018-10-11T20:03:09.549Z,14.50
2018-10-11T20:05:38.116Z,14.50
2018-10-11T20:08:06.809Z,14.50
2018-10-11T20:10:35.775Z,14.50
2018-10-11T20:13:04.385Z,14.50
2018-10-11T20:15:32.971Z,14.50
2018-10-11T20:18:03.902Z,14.50
2018-10-11T20:20:30.176Z,14.50
2018-10-11T20:22:58.768Z,14.50
2018-10-11T20:25:27.347Z,14.50
2018-10-11T20:27:56.074Z,14.50
2018-10-11T20:30:24.629Z,14.40
2018-10-11T20:32:53.183Z,14.50
2018-10-11T20:35:22.194Z,14.40
2018-10-11T20:37:50.855Z,14.40
2018-10-11T20:40:19.450Z,14.40
2018-10-11T20:42:48.272Z,14.40
2018-10-11T20:45:16.886Z,14.40
2018-10-11T20:47:45.428Z,14.40
2018-10-11T20:50:14.008Z,14.30
2018-10-11T20:52:42.583Z,14.30
2018-10-11T20:55:11.191Z,14.30
2018-10-11T20:57:39.765Z,14.30
2018-10-11T21:00:09.253Z,14.30
2018-10-11T21:02:38.592Z,14.30
2018-10-11T21:05:07.483Z,14.30
2018-10-11T21:07:36.020Z,14.30
2018-10-11T21:10:04.716Z,14.20
2018-10-11T21:12:33.260Z,14.20
2018-10-11T21:15:01.840Z,14.20
2018-10-11T21:17:30.365Z,14.20
2018-10-11T21:19:58.947Z,14.20
2018-10-11T21:22:27.479Z,14.30
2018-10-11T21:24:56.011Z,14.20
2018-10-11T21:27:24.568Z,14.30
2018-10-11T21:29:53.100Z,14.30
2018-10-11T21:32:21.692Z,14.30
2018-10-11T21:34:50.225Z,14.30
2018-10-11T21:37:18.781Z,14.30
2018-10-11T21:39:47.331Z,14.30
2018-10-11T21:42:15.910Z,14.30
2018-10-11T21:44:44.446Z,14.30
2018-10-11T21:47:13.100Z,14.20
2018-10-11T21:49:41.671Z,14.20
2018-10-11T21:52:10.370Z,14.20
2018-10-11T21:54:40.032Z,14.20
2018-10-11T21:57:08.617Z,14.20
2018-10-11T21:59:37.174Z,14.20
2018-10-11T22:02:05.755Z,14.20
2018-10-11T22:04:34.293Z,14.20
2018-10-11T22:07:02.868Z,14.20
2018-10-11T22:09:31.472Z,14.10
2018-10-11T22:12:00.033Z,14.10
2018-10-11T22:14:28.641Z,14.10
2018-10-11T22:16:57.224Z,14.10
2018-10-11T22:19:25.803Z,14.10
2018-10-11T22:21:54.352Z,14.10
2018-10-11T22:24:22.885Z,14.10
2018-10-11T22:26:51.414Z,14.00
2018-10-11T22:29:19.970Z,14.00
2018-10-11T22:31:48.535Z,13.90
2018-10-11T22:34:17.100Z,14.00
2018-10-11T22:36:45.735Z,14.00
2018-10-11T22:39:14.287Z,14.00
2018-10-11T22:41:42.949Z,14.00
2018-10-11T22:44:12.301Z,13.90
2018-10-11T22:46:41.706Z,13.90
2018-10-11T22:49:10.787Z,13.90
2018-10-11T22:51:40.195Z,13.90
2018-10-11T22:54:09.867Z,13.90
2018-10-11T22:56:39.312Z,13.90
2018-10-11T22:59:07.856Z,13.80
2018-10-11T23:01:36.426Z,13.80
2018-10-11T23:04:05.047Z,13.80
2018-10-11T23:06:33.635Z,13.80
2018-10-11T23:09:02.222Z,13.80
2018-10-11T23:11:30.731Z,13.80
2018-10-11T23:13:59.531Z,13.70
2018-10-11T23:16:28.091Z,13.70
2018-10-11T23:18:56.756Z,13.70
2018-10-11T23:21:25.284Z,13.70
2018-10-11T23:23:53.970Z,13.70
2018-10-11T23:26:22.500Z,13.70
2018-10-11T23:28:51.051Z,13.60
2018-10-11T23:31:19.687Z,13.60
2018-10-11T23:33:48.230Z,13.60
2018-10-11T23:36:16.792Z,13.60
2018-10-11T23:38:45.346Z,13.60
2018-10-11T23:41:13.902Z,13.60
2018-10-11T23:43:42.439Z,13.50
2018-10-11T23:46:11.064Z,13.50
2018-10-11T23:48:40.201Z,13.50
2018-10-11T23:51:08.739Z,13.40
2018-10-11T23:53:37.381Z,13.40
2018-10-11T23:56:06.687Z,13.40
2018-10-11T23:58:35.256Z,13.40
